createdAt,value
2019-06-07T00:07:35.971Z,1012.63
2019-06-07T00:22:36.094Z,1012.74
2019-06-07T00:37:36.267Z,1012.63
2019-06-07T01:07:41.680Z,1012.50
2019-06-07T01:22:41.803Z,1012.83
2019-06-07T01:37:43.511Z,1012.85
2019-06-07T01:52:43.686Z,1012.71
2019-06-07T02:07:43.889Z,1012.72
2019-06-07T02:22:44.074Z,1013.02
2019-06-07T02:37:44.313Z,1012.96
2019-06-07T02:52:44.504Z,1012.91
2019-06-07T03:07:45.708Z,1013.01
2019-06-07T03:22:45.818Z,1013.12
2019-06-07T03:37:46.238Z,1013.15
2019-06-07T03:52:47.007Z,1013.40
2019-06-07T04:07:47.225Z,1013.45
2019-06-07T04:22:47.393Z,1013.51
2019-06-07T04:37:47.615Z,1013.59
2019-06-07T04:52:48.040Z,1013.48
2019-06-07T05:07:48.130Z,1013.35
2019-06-07T05:22:48.429Z,1013.49
2019-06-07T05:37:48.673Z,1013.54
2019-06-07T05:52:48.832Z,1013.54
2019-06-07T06:07:50.793Z,1013.49
2019-06-07T06:22:51.755Z,1013.61
2019-06-07T06:37:53.338Z,1013.60
2019-06-07T06:52:54.941Z,1013.66
2019-06-07T07:07:55.233Z,1013.65
2019-06-07T07:22:57.187Z,1013.55
2019-06-07T07:37:59.838Z,1013.55
2019-06-07T07:53:00.924Z,1013.58
2019-06-07T08:08:04.984Z,1013.51
2019-06-07T08:23:06.066Z,1013.52
2019-06-07T08:38:27.628Z,1013.44
2019-06-07T08:53:12.464Z,1013.44
2019-06-07T09:08:29.212Z,1013.41
2019-06-07T09:23:18.050Z,1013.32
2019-06-07T09:38:25.756Z,1013.23
2019-06-07T09:53:23.977Z,1013.27
2019-06-07T10:09:42.577Z,1013.10
2019-06-07T10:23:29.393Z,1013.05
2019-06-07T10:38:29.506Z,1012.92
2019-06-07T10:53:29.568Z,1012.80
2019-06-07T11:08:29.729Z,1012.74
2019-06-07T11:23:29.902Z,1012.56
2019-06-07T11:38:30.024Z,1012.45
2019-06-07T11:53:30.233Z,1012.32
2019-06-07T12:08:30.374Z,1012.13
2019-06-07T12:23:30.555Z,1011.95
2019-06-07T12:38:30.782Z,1011.90
2019-06-07T12:53:30.847Z,1011.80
2019-06-07T13:08:31.003Z,1011.70
2019-06-07T13:23:31.202Z,1011.47
2019-06-07T13:38:31.366Z,1011.28
2019-06-07T13:53:31.584Z,1011.13
2019-06-07T14:08:31.706Z,1010.98
2019-06-07T14:23:45.892Z,1010.84
2019-06-07T14:38:37.778Z,1010.67
2019-06-07T14:53:38.358Z,1010.55
2019-06-07T15:08:39.186Z,1010.49
2019-06-07T15:23:39.784Z,1010.24
2019-06-07T15:38:40.085Z,1010.31
2019-06-07T15:53:44.466Z,1010.26
2019-06-07T16:08:45.448Z,1010.14
2019-06-07T16:23:45.738Z,1010.07
2019-06-07T16:38:45.868Z,1009.90
2019-06-07T16:53:46.006Z,1010.04
2019-06-07T17:08:46.322Z,1009.92
2019-06-07T17:23:47.418Z,1009.69
2019-06-07T17:38:48.679Z,1009.68
2019-06-07T17:53:49.847Z,1009.65
2019-06-07T18:08:49.844Z,1009.55
2019-06-07T18:23:50.326Z,1009.47
2019-06-07T18:38:50.896Z,1009.28
2019-06-07T18:53:51.688Z,1009.17
2019-06-07T19:08:55.559Z,1008.63
2019-06-07T19:23:57.959Z,1008.99
2019-06-07T19:38:58.056Z,1009.16
2019-06-07T19:53:59.099Z,1009.14
2019-06-07T20:08:59.234Z,1009.28
2019-06-07T20:24:00.191Z,1009.50
2019-06-07T20:39:06.130Z,1009.59
2019-06-07T20:54:07.406Z,1009.73
2019-06-07T21:09:08.058Z,1009.72
2019-06-07T21:24:08.758Z,1009.75
2019-06-07T21:39:10.316Z,1009.78
2019-06-07T21:54:13.110Z,1009.86
2019-06-07T22:09:15.263Z,1010.01
2019-06-07T22:24:15.396Z,1010.04
2019-06-07T22:39:16.074Z,1009.97
2019-06-07T22:54:16.218Z,1009.79
2019-06-07T23:09:17.119Z,1009.75
2019-06-07T23:24:19.578Z,1009.81
2019-06-07T23:39:22.493Z,1009.75
2019-06-07T23:54:22.900Z,1009.54
